TimeCDT,TemperatureF,Dew PointF,Humidity,Sea Level PressureIn,VisibilityMPH,Wind Direction,Wind SpeedMPH,Gust SpeedMPH,PrecipitationIn,Events,Conditions,WindDirDegrees,DateUTC
12:15 AM,48.2,30.2,50,30.20,10.0,SE,4.6,-,N/A,,Clear,130,2011-11-02 05:15:00
12:35 AM,48.2,30.2,50,30.19,10.0,SE,5.8,-,N/A,,Clear,140,2011-11-02 05:35:00
12:55 AM,50.0,32.0,50,30.19,10.0,SE,5.8,-,N/A,,Clear,140,2011-11-02 05:55:00
1:15 AM,50.0,32.0,50,30.19,10.0,SE,5.8,-,N/A,,Clear,140,2011-11-02 06:15:00
1:35 AM,50.0,32.0,50,30.19,10.0,SSE,4.6,-,N/A,,Clear,150,2011-11-02 06:35:00
1:55 AM,50.0,33.8,54,30.19,10.0,South,3.5,-,N/A,,Clear,170,2011-11-02 06:55:00
2:15 AM,50.0,32.0,50,30.19,10.0,South,4.6,-,N/A,,Clear,180,2011-11-02 07:15:00
2:35 AM,48.2,32.0,54,30.19,10.0,South,4.6,-,N/A,,Clear,170,2011-11-02 07:35:00
2:55 AM,48.2,32.0,54,30.19,10.0,South,4.6,-,N/A,,Clear,180,2011-11-02 07:55:00
3:15 AM,48.2,32.0,54,30.20,10.0,SSE,4.6,-,N/A,,Clear,160,2011-11-02 08:15:00
3:35 AM,48.2,32.0,54,30.20,10.0,SSE,4.6,-,N/A,,Clear,160,2011-11-02 08:35:00
3:55 AM,48.2,33.8,58,30.20,10.0,SSE,4.6,-,N/A,,Clear,160,2011-11-02 08:55:00
4:55 AM,48.2,33.8,58,30.21,10.0,SSE,3.5,-,N/A,,Clear,160,2011-11-02 09:55:00
5:55 AM,44.6,33.8,66,30.23,10.0,East,3.5,-,N/A,,Clear,90,2011-11-02 10:55:00
6:15 AM,44.6,32.0,61,30.23,10.0,Calm,Calm,-,N/A,,Clear,0,2011-11-02 11:15:00
6:35 AM,42.8,32.0,66,30.24,10.0,Calm,Calm,-,N/A,,Clear,0,2011-11-02 11:35:00
6:55 AM,42.8,33.8,70,30.24,10.0,ESE,3.5,-,N/A,,Clear,120,2011-11-02 11:55:00
7:15 AM,42.8,33.8,70,30.24,10.0,Calm,Calm,-,N/A,,Clear,0,2011-11-02 12:15:00
7:35 AM,44.6,32.0,61,30.25,10.0,South,3.5,-,N/A,,Clear,170,2011-11-02 12:35:00
7:55 AM,46.4,33.8,62,30.25,10.0,SSE,4.6,-,N/A,,Clear,160,2011-11-02 12:55:00
8:15 AM,48.2,33.8,58,30.25,10.0,South,4.6,-,N/A,,Clear,170,2011-11-02 13:15:00
8:55 AM,50.0,35.6,58,30.25,10.0,South,5.8,-,N/A,,Clear,170,2011-11-02 13:55:00
9:15 AM,53.6,35.6,51,30.26,10.0,South,5.8,-,N/A,,Clear,180,2011-11-02 14:15:00
9:35 AM,53.6,37.4,54,30.26,10.0,South,4.6,-,N/A,,Clear,180,2011-11-02 14:35:00
9:55 AM,57.2,39.2,51,30.26,10.0,South,4.6,-,N/A,,Clear,170,2011-11-02 14:55:00
10:15 AM,59.0,41.0,51,30.25,10.0,South,5.8,-,N/A,,Clear,190,2011-11-02 15:15:00
10:35 AM,60.8,42.8,52,30.25,10.0,SSW,6.9,-,N/A,,Clear,200,2011-11-02 15:35:00
10:55 AM,62.6,44.6,52,30.24,10.0,SSE,5.8,-,N/A,,Clear,160,2011-11-02 15:55:00
11:15 AM,64.4,44.6,49,30.24,10.0,South,4.6,-,N/A,,Clear,180,2011-11-02 16:15:00
11:35 AM,66.2,46.4,49,30.23,10.0,SSW,6.9,-,N/A,,Clear,200,2011-11-02 16:35:00
11:55 AM,68.0,44.6,43,30.22,10.0,South,9.2,-,N/A,,Clear,180,2011-11-02 16:55:00
12:15 PM,69.8,44.6,40,30.21,10.0,SSW,9.2,17.3,N/A,,Clear,200,2011-11-02 17:15:00
12:35 PM,69.8,44.6,40,30.20,10.0,South,9.2,19.6,N/A,,Clear,190,2011-11-02 17:35:00
12:55 PM,71.6,44.6,38,30.19,10.0,SSW,9.2,16.1,N/A,,Clear,200,2011-11-02 17:55:00
1:15 PM,71.6,42.8,35,30.17,10.0,South,9.2,16.1,N/A,,Clear,180,2011-11-02 18:15:00
1:35 PM,71.6,42.8,35,30.16,10.0,South,11.5,17.3,N/A,,Clear,170,2011-11-02 18:35:00
1:55 PM,71.6,42.8,35,30.15,10.0,South,8.1,-,N/A,,Clear,190,2011-11-02 18:55:00
2:15 PM,71.6,41.0,33,30.14,10.0,South,10.4,18.4,N/A,,Clear,170,2011-11-02 19:15:00
2:35 PM,71.6,41.0,33,30.14,10.0,South,12.7,16.1,N/A,,Clear,180,2011-11-02 19:35:00
2:55 PM,71.6,42.8,35,30.13,10.0,SSW,9.2,-,N/A,,Clear,200,2011-11-02 19:55:00
3:15 PM,71.6,39.2,31,30.12,10.0,South,10.4,18.4,N/A,,Clear,180,2011-11-02 20:15:00
3:35 PM,71.6,39.2,31,30.11,10.0,South,8.1,16.1,N/A,,Clear,170,2011-11-02 20:35:00
3:55 PM,71.6,39.2,31,30.11,10.0,SSW,8.1,-,N/A,,Clear,200,2011-11-02 20:55:00
4:15 PM,69.8,39.2,33,30.10,5.0,South,10.4,16.1,N/A,,Partly Cloudy,180,2011-11-02 21:15:00
4:35 PM,69.8,37.4,31,30.10,10.0,SSE,9.2,18.4,N/A,,Unknown,160,2011-11-02 21:35:00
4:55 PM,69.8,37.4,31,30.10,10.0,South,11.5,-,N/A,,Partly Cloudy,170,2011-11-02 21:55:00
5:15 PM,68.0,37.4,33,30.09,10.0,South,8.1,-,N/A,,Clear,170,2011-11-02 22:15:00
5:35 PM,66.2,37.4,35,30.08,10.0,South,8.1,-,N/A,,Clear,170,2011-11-02 22:35:00
5:55 PM,66.2,37.4,35,30.08,6.0,South,5.8,-,N/A,,Clear,170,2011-11-02 22:55:00
6:15 PM,64.4,37.4,37,30.08,10.0,SSE,6.9,-,N/A,,Clear,160,2011-11-02 23:15:00
6:35 PM,64.4,35.6,34,30.09,10.0,South,6.9,-,N/A,,Clear,170,2011-11-02 23:35:00
6:55 PM,62.6,35.6,37,30.09,10.0,South,4.6,-,N/A,,Clear,170,2011-11-02 23:55:00
7:15 PM,60.8,35.6,39,30.09,10.0,SSE,4.6,-,N/A,,Clear,160,2011-11-03 00:15:00
7:35 PM,60.8,35.6,39,30.09,10.0,SSE,5.8,-,N/A,,Clear,160,2011-11-03 00:35:00
7:55 PM,59.0,35.6,42,30.09,10.0,South,4.6,-,N/A,,Clear,170,2011-11-03 00:55:00
8:15 PM,59.0,35.6,42,30.09,10.0,SSE,4.6,-,N/A,,Clear,160,2011-11-03 01:15:00
8:35 PM,57.2,35.6,44,30.08,10.0,SSE,4.6,-,N/A,,Clear,160,2011-11-03 01:35:00
8:55 PM,57.2,35.6,44,30.09,10.0,Calm,Calm,-,N/A,,Clear,0,2011-11-03 01:55:00
9:15 PM,55.4,35.6,47,30.09,10.0,SE,4.6,-,N/A,,Clear,130,2011-11-03 02:15:00
9:35 PM,55.4,35.6,47,30.08,10.0,SE,5.8,-,N/A,,Clear,140,2011-11-03 02:35:00
9:55 PM,55.4,35.6,47,30.07,10.0,SE,5.8,-,N/A,,Clear,140,2011-11-03 02:55:00
10:15 PM,55.4,35.6,47,30.06,10.0,SSE,8.1,-,N/A,,Clear,150,2011-11-03 03:15:00
10:35 PM,57.2,35.6,44,30.05,10.0,SSE,9.2,-,N/A,,Clear,150,2011-11-03 03:35:00
10:55 PM,57.2,35.6,44,30.04,10.0,SSE,10.4,16.1,N/A,,Clear,150,2011-11-03 03:55:00
11:15 PM,57.2,35.6,44,30.03,10.0,SSE,10.4,16.1,N/A,,Clear,150,2011-11-03 04:15:00
11:35 PM,57.2,35.6,44,30.02,10.0,SSE,10.4,16.1,N/A,,Clear,160,2011-11-03 04:35:00
11:55 PM,57.2,35.6,44,30.00,10.0,SSE,12.7,19.6,N/A,,Clear,150,2011-11-03 04:55:00